createdAt,value
2019-05-03T00:02:34.142Z,8.13
2019-05-03T00:07:42.046Z,7.97
2019-05-03T00:12:48.182Z,8.48
2019-05-03T00:17:54.356Z,6.90
2019-05-03T00:23:00.235Z,14.90
2019-05-03T00:28:06.212Z,10.55
2019-05-03T00:33:12.276Z,10.32
2019-05-03T00:38:18.476Z,12.43
2019-05-03T00:43:24.635Z,10.10
2019-05-03T00:48:32.489Z,10.20
2019-05-03T00:53:38.307Z,8.38
2019-05-03T00:58:52.955Z,9.95
2019-05-03T01:03:59.301Z,8.28
2019-05-03T01:09:08.537Z,7.77
2019-05-03T01:14:15.370Z,8.53
2019-05-03T01:19:22.727Z,10.18
2019-05-03T01:24:28.715Z,9.13
2019-05-03T01:29:34.802Z,8.53
2019-05-03T01:34:41.687Z,7.50
2019-05-03T01:39:47.966Z,12.80
2019-05-03T01:44:54.050Z,9.98
2019-05-03T01:50:12.153Z,10.53
2019-05-03T01:55:18.408Z,11.93
2019-05-03T02:00:26.642Z,9.63
2019-05-03T02:05:48.248Z,8.25
2019-05-03T02:10:54.328Z,10.03
2019-05-03T02:16:02.274Z,11.00
2019-05-03T02:21:08.417Z,8.95
2019-05-03T02:26:14.815Z,10.33
2019-05-03T02:31:23.246Z,10.40
2019-05-03T02:36:28.502Z,11.10
2019-05-03T02:41:34.466Z,13.33
2019-05-03T02:47:15.914Z,11.25
2019-05-03T02:52:37.958Z,16.07
2019-05-03T02:57:46.648Z,12.57
2019-05-03T03:02:52.126Z,12.70
2019-05-03T03:07:58.728Z,14.60
2019-05-03T03:13:06.287Z,14.03
2019-05-03T03:18:15.792Z,15.83
2019-05-03T03:23:26.199Z,18.80
2019-05-03T03:28:35.957Z,16.77
2019-05-03T03:33:41.189Z,19.30
2019-05-03T03:38:47.358Z,25.37
2019-05-03T03:43:55.868Z,20.40
2019-05-03T03:49:02.693Z,20.23
2019-05-03T03:54:10.161Z,18.12
2019-05-03T03:59:16.393Z,16.70
2019-05-03T04:04:25.760Z,13.78
2019-05-03T04:09:30.876Z,15.93
2019-05-03T04:14:45.368Z,14.58
2019-05-03T04:19:55.860Z,17.63
2019-05-03T04:25:01.201Z,17.43
2019-05-03T04:30:07.592Z,18.73
2019-05-03T04:35:16.462Z,19.40
2019-05-03T04:40:21.575Z,19.73
2019-05-03T04:45:27.650Z,23.37
2019-05-03T04:50:36.344Z,21.30
2019-05-03T04:55:41.385Z,21.43
2019-05-03T05:00:47.331Z,20.23
2019-05-03T05:05:55.512Z,16.63
2019-05-03T05:11:01.130Z,19.60
2019-05-03T05:16:07.280Z,17.80
2019-05-03T05:21:25.250Z,16.77
2019-05-03T05:26:39.219Z,20.90
2019-05-03T05:31:45.298Z,18.13
2019-05-03T05:36:51.287Z,18.37
2019-05-03T05:41:57.342Z,19.00
2019-05-03T05:47:16.278Z,19.03
2019-05-03T05:52:24.395Z,20.43
2019-05-03T05:57:37.846Z,22.00
2019-05-03T06:02:44.701Z,20.53
2019-05-03T06:08:09.628Z,24.87
2019-05-03T06:13:28.836Z,22.53
2019-05-03T06:18:54.293Z,25.90
2019-05-03T06:24:04.624Z,26.00
2019-05-03T06:29:12.425Z,34.70
2019-05-03T06:34:18.165Z,31.87
2019-05-03T06:39:24.898Z,20.60
2019-05-03T06:44:31.149Z,25.50
2019-05-03T06:49:39.181Z,25.70
2019-05-03T06:54:45.046Z,23.30
2019-05-03T06:59:56.413Z,29.50
2019-05-03T07:05:04.986Z,23.97
2019-05-03T07:10:29.191Z,25.07
2019-05-03T07:15:35.279Z,29.17
2019-05-03T07:20:47.794Z,26.33
2019-05-03T07:25:55.162Z,28.77
2019-05-03T07:31:01.317Z,24.27
2019-05-03T07:36:07.303Z,29.50
2019-05-03T07:41:14.926Z,26.93
2019-05-03T07:46:21.048Z,33.50
2019-05-03T07:51:27.110Z,29.97
2019-05-03T07:56:37.185Z,31.80
2019-05-03T08:01:46.821Z,29.03
2019-05-03T08:06:55.042Z,30.57
2019-05-03T08:12:01.295Z,30.50
2019-05-03T08:17:07.227Z,36.40
2019-05-03T08:22:14.961Z,38.50
2019-05-03T08:27:21.230Z,40.93
2019-05-03T08:32:45.289Z,28.40
2019-05-03T08:38:01.511Z,29.20
2019-05-03T08:43:07.702Z,30.17
2019-05-03T08:48:15.221Z,31.33
2019-05-03T08:53:21.414Z,30.07
2019-05-03T08:58:27.381Z,27.17
2019-05-03T09:03:36.289Z,26.00
2019-05-03T09:08:41.147Z,26.90
2019-05-03T09:13:55.777Z,26.47
2019-05-03T09:19:02.039Z,26.17
2019-05-03T09:24:09.640Z,23.97
2019-05-03T09:29:17.966Z,20.77
2019-05-03T09:34:25.705Z,26.73
2019-05-03T09:39:35.313Z,33.37
2019-05-03T09:44:41.433Z,31.77
2019-05-03T09:49:47.610Z,32.67
2019-05-03T09:54:55.257Z,37.07
2019-05-03T10:00:01.424Z,42.73
2019-05-03T10:05:07.968Z,36.90
2019-05-03T10:10:15.414Z,46.30
2019-05-03T10:15:41.758Z,39.83
2019-05-03T10:20:47.517Z,39.27
2019-05-03T10:25:55.212Z,40.90
2019-05-03T10:31:01.715Z,41.90
2019-05-03T10:36:07.895Z,38.63
2019-05-03T10:41:14.008Z,38.73
2019-05-03T10:46:20.039Z,35.37
2019-05-03T10:51:28.452Z,46.37
2019-05-03T10:56:49.131Z,39.70
2019-05-03T11:02:05.274Z,43.47
2019-05-03T11:07:11.321Z,40.93
2019-05-03T11:12:17.255Z,39.87
2019-05-03T11:17:25.497Z,39.53
2019-05-03T11:22:30.958Z,46.00
2019-05-03T11:27:51.627Z,34.40
2019-05-03T11:33:02.375Z,43.00
2019-05-03T11:38:34.995Z,37.43
2019-05-03T11:43:42.030Z,37.05
2019-05-03T11:48:48.237Z,36.05
2019-05-03T11:53:54.334Z,36.25
2019-05-03T11:59:00.398Z,40.95
2019-05-03T12:04:06.323Z,44.13
2019-05-03T12:09:15.450Z,38.50
2019-05-03T12:14:20.964Z,33.53
2019-05-03T12:19:31.181Z,29.98
2019-05-03T12:24:36.432Z,25.70
2019-05-03T12:29:44.755Z,24.63
2019-05-03T12:34:50.397Z,26.65
2019-05-03T12:39:56.367Z,26.17
2019-05-03T12:45:04.586Z,22.62
2019-05-03T12:50:10.822Z,24.27
2019-05-03T12:55:17.029Z,19.07
2019-05-03T13:00:42.093Z,25.72
2019-05-03T13:05:48.038Z,26.52
2019-05-03T13:10:55.725Z,18.57
2019-05-03T13:16:01.956Z,20.20
2019-05-03T13:21:07.939Z,16.37
2019-05-03T13:26:14.802Z,17.73
2019-05-03T13:31:21.030Z,13.03
2019-05-03T13:36:27.101Z,18.60
2019-05-03T13:41:34.942Z,16.93
2019-05-03T13:46:41.059Z,15.32
2019-05-03T13:51:47.042Z,11.88
2019-05-03T13:56:55.071Z,12.43
2019-05-03T14:02:12.508Z,10.65
2019-05-03T14:07:08.875Z,11.05
2019-05-03T14:12:15.522Z,10.43
2019-05-03T14:17:21.846Z,9.28
2019-05-03T14:22:29.602Z,12.55
2019-05-03T14:27:35.722Z,10.18
2019-05-03T14:32:41.605Z,10.08
2019-05-03T14:37:47.457Z,10.78
2019-05-03T14:42:55.300Z,9.80
2019-05-03T14:48:01.059Z,9.78
2019-05-03T14:53:07.113Z,7.75
2019-05-03T14:58:30.774Z,5.72
2019-05-03T15:03:36.490Z,6.25
2019-05-03T15:08:42.373Z,7.17
2019-05-03T15:13:48.545Z,3.60
2019-05-03T15:18:54.936Z,1.00
2019-05-03T15:24:01.016Z,2.58
2019-05-03T15:29:07.901Z,1.40
2019-05-03T15:34:15.275Z,2.25
2019-05-03T15:39:21.695Z,1.27
2019-05-03T15:44:35.566Z,1.20
2019-05-03T15:49:44.681Z,6.37
2019-05-03T15:54:49.018Z,1.62
2019-05-03T15:59:55.263Z,3.90
2019-05-03T16:05:01.189Z,6.35
2019-05-03T16:10:07.460Z,4.45
2019-05-03T16:15:13.738Z,6.03
2019-05-03T16:20:20.042Z,6.55
2019-05-03T16:25:26.346Z,6.15
2019-05-03T16:30:50.510Z,6.28
2019-05-03T16:35:56.626Z,8.15
2019-05-03T16:41:02.743Z,9.73
2019-05-03T16:46:08.661Z,6.08
2019-05-03T16:51:17.144Z,5.12
2019-05-03T16:56:24.353Z,3.45
2019-05-03T17:01:30.202Z,10.43
2019-05-03T17:06:55.291Z,5.45
2019-05-03T17:12:17.065Z,3.98
2019-05-03T17:17:25.091Z,4.12
2019-05-03T17:22:30.540Z,5.78
2019-05-03T17:27:36.500Z,5.80
2019-05-03T17:32:44.448Z,8.98
2019-05-03T17:37:50.322Z,8.60
2019-05-03T17:43:01.458Z,10.03
2019-05-03T17:48:07.341Z,6.53
2019-05-03T17:53:47.565Z,8.50
2019-05-03T17:59:05.811Z,8.28
2019-05-03T18:04:19.256Z,8.63
2019-05-03T18:09:29.482Z,7.17
2019-05-03T18:14:38.413Z,11.78
2019-05-03T18:19:44.809Z,10.53
2019-05-03T18:24:51.331Z,9.73
2019-05-03T18:29:57.389Z,10.03
2019-05-03T18:35:04.845Z,10.82
2019-05-03T18:40:11.349Z,28.70
2019-05-03T18:45:22.863Z,18.17
2019-05-03T18:50:29.039Z,17.55
2019-05-03T18:55:34.848Z,15.00
2019-05-03T19:00:40.953Z,16.60
2019-05-03T19:05:48.395Z,20.10
2019-05-03T19:10:58.474Z,16.27
2019-05-03T19:16:15.261Z,14.05
2019-05-03T19:21:21.073Z,20.03
2019-05-03T19:26:28.060Z,9.37
2019-05-03T19:31:35.590Z,9.13
2019-05-03T19:36:41.804Z,10.30
2019-05-03T19:41:47.871Z,9.73
2019-05-03T19:46:55.280Z,8.40
2019-05-03T19:52:01.140Z,14.65
2019-05-03T19:57:07.123Z,13.88
2019-05-03T20:02:21.149Z,11.00
2019-05-03T20:07:42.896Z,7.27
2019-05-03T20:12:48.779Z,5.57
2019-05-03T20:17:59.843Z,7.30
2019-05-03T20:23:02.115Z,5.47
2019-05-03T20:28:08.980Z,7.63
2019-05-03T20:33:15.041Z,10.43
2019-05-03T20:38:22.289Z,4.27
2019-05-03T20:44:02.651Z,6.33
2019-05-03T20:49:10.750Z,4.30
2019-05-03T20:54:16.812Z,3.43
2019-05-03T20:59:22.786Z,4.80
2019-05-03T21:04:28.665Z,6.00
2019-05-03T21:09:34.742Z,4.37
2019-05-03T21:14:40.412Z,3.07
2019-05-03T21:19:57.806Z,1.87
2019-05-03T21:25:26.889Z,3.97
2019-05-03T21:30:32.991Z,2.47
2019-05-03T21:35:42.013Z,7.73
2019-05-03T21:40:48.385Z,5.67
2019-05-03T21:46:04.510Z,7.63
2019-05-03T21:51:10.465Z,5.57
2019-05-03T21:56:16.553Z,8.87
2019-05-03T22:01:22.745Z,12.13
2019-05-03T22:06:28.694Z,4.60
2019-05-03T22:11:34.666Z,5.73
2019-05-03T22:16:52.469Z,7.93
2019-05-03T22:22:20.310Z,8.43
2019-05-03T22:27:28.994Z,10.53
2019-05-03T22:32:35.706Z,8.00
2019-05-03T22:37:41.737Z,11.33
2019-05-03T22:42:47.929Z,13.87
2019-05-03T22:47:54.973Z,8.40
2019-05-03T22:53:01.365Z,7.57
2019-05-03T22:58:07.500Z,6.27
2019-05-03T23:03:14.493Z,9.70
2019-05-03T23:08:20.501Z,15.07
2019-05-03T23:13:26.401Z,10.00
2019-05-03T23:18:32.466Z,7.97
2019-05-03T23:23:54.866Z,9.40
2019-05-03T23:29:01.100Z,6.27
2019-05-03T23:34:07.316Z,10.33
2019-05-03T23:39:14.485Z,7.07
2019-05-03T23:44:20.342Z,7.60
2019-05-03T23:49:26.226Z,7.27
2019-05-03T23:54:32.182Z,5.63
2019-05-03T23:59:38.082Z,6.28
